createdAt,value
2023-03-04T00:00:30.928Z,22.50
2023-03-04T00:02:59.833Z,20.03
2023-03-04T00:05:28.569Z,20.20
2023-03-04T00:07:57.332Z,22.97
2023-03-04T00:10:27.628Z,21.03
2023-03-04T00:12:58.675Z,18.63
2023-03-04T00:15:27.559Z,20.30
2023-03-04T00:17:56.190Z,22.30
2023-03-04T00:20:24.980Z,23.93
2023-03-04T00:23:06.848Z,21.87
2023-03-04T00:25:38.324Z,21.57
2023-03-04T00:28:07.031Z,21.17
2023-03-04T00:30:35.696Z,25.77
2023-03-04T00:33:04.374Z,22.10
2023-03-04T00:35:33.338Z,21.37
2023-03-04T00:38:01.976Z,22.93
2023-03-04T00:40:30.640Z,28.10
2023-03-04T00:43:00.845Z,25.23
2023-03-04T00:45:29.488Z,27.27
2023-03-04T00:47:58.094Z,25.33
2023-03-04T00:50:26.803Z,24.00
2023-03-04T00:52:55.605Z,23.67
2023-03-04T00:55:24.336Z,27.77
2023-03-04T00:57:52.846Z,25.77
2023-03-04T01:00:21.894Z,27.53
2023-03-04T01:02:50.719Z,28.77
2023-03-04T01:05:19.636Z,27.27
2023-03-04T01:07:48.241Z,28.27
2023-03-04T01:10:17.553Z,25.40
2023-03-04T01:12:46.500Z,23.20
2023-03-04T01:15:16.518Z,26.20
2023-03-04T01:17:46.134Z,24.10
2023-03-04T01:20:16.636Z,23.00
2023-03-04T01:22:45.289Z,23.20
2023-03-04T01:25:13.970Z,22.40
2023-03-04T01:27:42.670Z,23.27
2023-03-04T01:30:12.531Z,23.70
2023-03-04T01:32:41.144Z,20.33
2023-03-04T01:35:10.142Z,20.73
2023-03-04T01:37:40.607Z,22.33
2023-03-04T01:40:10.326Z,23.40
2023-03-04T01:42:38.989Z,27.13
2023-03-04T01:45:10.849Z,25.37
2023-03-04T01:47:44.459Z,27.73
2023-03-04T01:50:16.172Z,23.63
2023-03-04T01:52:44.835Z,29.83
2023-03-04T01:55:16.448Z,23.00
2023-03-04T01:57:45.235Z,25.50
2023-03-04T02:00:28.722Z,24.87
2023-03-04T02:03:00.774Z,25.40
2023-03-04T02:05:30.917Z,23.30
2023-03-04T02:08:01.759Z,24.90
2023-03-04T02:10:30.776Z,22.20
2023-03-04T02:13:01.274Z,22.60
2023-03-04T02:15:31.008Z,24.33
2023-03-04T02:17:59.919Z,23.07
2023-03-04T02:20:55.910Z,22.00
2023-03-04T02:23:55.691Z,22.77
2023-03-04T02:26:26.973Z,22.93
2023-03-04T02:28:58.199Z,27.33
2023-03-04T02:31:41.590Z,27.33
2023-03-04T02:34:22.028Z,25.60
2023-03-04T02:36:53.134Z,22.80
2023-03-04T02:39:24.763Z,22.37
2023-03-04T02:41:56.340Z,22.47
2023-03-04T02:44:33.178Z,22.80
2023-03-04T02:47:02.456Z,20.67
2023-03-04T02:49:33.089Z,22.60
2023-03-04T02:52:07.781Z,20.27
2023-03-04T02:54:36.838Z,22.60
2023-03-04T02:57:09.178Z,23.07
2023-03-04T02:59:39.579Z,22.77
2023-03-04T03:02:09.146Z,23.17
2023-03-04T03:04:40.789Z,22.23
2023-03-04T03:07:09.666Z,24.43
2023-03-04T03:09:38.418Z,27.60
2023-03-04T03:12:07.090Z,24.70
2023-03-04T03:14:35.672Z,24.00
2023-03-04T03:17:04.335Z,28.80
2023-03-04T03:19:40.195Z,23.97
2023-03-04T03:22:08.863Z,26.17
2023-03-04T03:24:37.655Z,24.83
2023-03-04T03:27:06.526Z,24.63
2023-03-04T03:29:35.234Z,25.13
2023-03-04T03:32:03.840Z,29.70
2023-03-04T03:34:32.417Z,23.27
2023-03-04T03:37:01.110Z,29.50
2023-03-04T03:39:29.679Z,26.77
2023-03-04T03:42:00.382Z,29.10
2023-03-04T03:44:28.683Z,25.77
2023-03-04T03:46:57.632Z,27.13
2023-03-04T03:49:26.570Z,24.27
2023-03-04T03:51:55.117Z,33.13
2023-03-04T03:54:23.862Z,24.73
2023-03-04T03:56:52.606Z,27.67
2023-03-04T03:59:21.246Z,31.10
2023-03-04T04:01:49.930Z,27.97
2023-03-04T04:04:18.612Z,27.93
2023-03-04T04:06:47.399Z,31.10
2023-03-04T04:09:15.973Z,27.93
2023-03-04T04:11:44.629Z,31.80
2023-03-04T04:14:14.673Z,25.70
2023-03-04T04:16:44.142Z,25.73
2023-03-04T04:19:18.462Z,28.30
2023-03-04T04:21:47.244Z,30.20
2023-03-04T04:24:15.926Z,27.97
2023-03-04T04:26:46.474Z,25.93
2023-03-04T04:29:16.314Z,26.83
2023-03-04T04:31:45.052Z,28.70
2023-03-04T04:34:13.601Z,31.40
2023-03-04T04:36:42.226Z,26.70
2023-03-04T04:39:10.856Z,28.10
2023-03-04T04:41:42.633Z,34.40
2023-03-04T04:44:11.746Z,26.90
2023-03-04T04:46:41.491Z,31.40
2023-03-04T04:49:10.184Z,31.83
2023-03-04T04:51:39.872Z,29.57
2023-03-04T04:54:08.833Z,31.83
2023-03-04T04:56:37.393Z,27.00
2023-03-04T04:59:08.620Z,27.50
2023-03-04T05:01:37.995Z,27.67
2023-03-04T05:04:06.970Z,30.63
2023-03-04T05:06:35.567Z,30.57
2023-03-04T05:09:04.529Z,31.60
2023-03-04T05:11:34.942Z,30.83
2023-03-04T05:14:03.722Z,30.60
2023-03-04T05:16:33.099Z,28.30
2023-03-04T05:19:01.816Z,26.33
2023-03-04T05:21:30.807Z,30.83
2023-03-04T05:23:59.516Z,28.10
2023-03-04T05:26:28.250Z,28.10
2023-03-04T05:28:56.841Z,27.37
2023-03-04T05:31:25.594Z,30.67
2023-03-04T05:33:54.287Z,33.17
2023-03-04T05:36:22.916Z,28.87
2023-03-04T05:38:51.800Z,31.20
2023-03-04T05:41:24.719Z,35.13
2023-03-04T05:43:53.348Z,29.33
2023-03-04T05:46:25.970Z,33.10
2023-03-04T05:48:55.836Z,26.37
2023-03-04T05:51:24.863Z,28.97
2023-03-04T05:53:53.555Z,27.73
2023-03-04T05:56:22.350Z,28.57
2023-03-04T05:58:51.126Z,29.40
2023-03-04T06:01:19.854Z,28.83
2023-03-04T06:03:49.407Z,30.77
2023-03-04T06:06:19.830Z,26.30
2023-03-04T06:08:52.734Z,28.03
2023-03-04T06:11:21.501Z,26.23
2023-03-04T06:13:50.363Z,35.70
2023-03-04T06:16:19.193Z,26.20
2023-03-04T06:18:47.842Z,25.20
2023-03-04T06:21:16.590Z,26.87
2023-03-04T06:23:45.775Z,29.00
2023-03-04T06:26:15.849Z,31.00
2023-03-04T06:28:45.841Z,29.47
2023-03-04T06:31:14.642Z,35.93
2023-03-04T06:33:43.338Z,31.13
2023-03-04T06:36:11.952Z,37.60
2023-03-04T06:38:48.288Z,29.70
2023-03-04T06:44:39.099Z,34.47
2023-03-04T06:49:36.068Z,35.00
2023-03-04T06:50:18.861Z,31.00
2023-03-04T06:52:05.042Z,31.83
2023-03-04T06:54:33.783Z,31.50
2023-03-04T06:57:02.491Z,33.80
2023-03-04T06:59:31.337Z,21.87
2023-03-04T07:02:00.113Z,18.33
2023-03-04T07:04:28.891Z,18.60
2023-03-04T07:06:57.510Z,23.03
2023-03-04T07:09:26.192Z,19.47
2023-03-04T07:11:54.787Z,26.73
2023-03-04T07:14:24.281Z,20.93
2023-03-04T07:16:53.264Z,22.90
2023-03-04T07:19:22.023Z,23.30
2023-03-04T07:21:50.934Z,22.47
2023-03-04T07:24:19.760Z,22.50
2023-03-04T07:26:48.327Z,18.30
2023-03-04T07:29:17.020Z,23.50
2023-03-04T07:31:45.829Z,24.57
2023-03-04T07:34:15.689Z,29.27
2023-03-04T07:36:46.253Z,24.07
2023-03-04T07:39:16.381Z,24.27
2023-03-04T07:41:45.157Z,24.73
2023-03-04T07:44:14.195Z,28.00
2023-03-04T07:46:45.245Z,27.00
2023-03-04T07:49:14.388Z,23.30
2023-03-04T07:51:45.848Z,21.00
2023-03-04T07:54:20.843Z,27.30
2023-03-04T07:56:58.988Z,19.97
2023-03-04T07:59:27.729Z,23.53
2023-03-04T08:01:56.337Z,24.10
2023-03-04T08:04:25.140Z,19.10
2023-03-04T08:10:05.214Z,22.20
2023-03-04T08:12:36.175Z,26.60
2023-03-04T08:18:25.909Z,35.57
2023-03-04T08:23:52.603Z,37.57
2023-03-04T08:26:40.363Z,35.57
2023-03-04T08:29:10.790Z,35.07
2023-03-04T08:31:39.921Z,38.70
2023-03-04T08:34:25.902Z,39.07
2023-03-04T08:37:00.367Z,38.47
2023-03-04T08:43:07.610Z,17.80
2023-03-04T08:45:48.025Z,22.47
2023-03-04T08:52:12.855Z,38.53
2023-03-04T08:54:11.374Z,35.00
2023-03-04T08:57:03.380Z,37.70
2023-03-04T09:00:12.475Z,37.67
2023-03-04T09:03:08.087Z,34.37
2023-03-04T09:06:10.560Z,40.20
2023-03-04T09:08:37.110Z,34.20
2023-03-04T09:14:40.951Z,33.60
2023-03-04T09:17:19.769Z,34.83
2023-03-04T09:19:48.473Z,38.63
2023-03-04T09:22:17.129Z,43.77
2023-03-04T09:24:47.270Z,36.00
2023-03-04T09:27:15.949Z,31.50
2023-03-04T09:29:46.423Z,31.00
2023-03-04T09:32:15.651Z,31.63
2023-03-04T09:34:44.447Z,34.37
2023-03-04T09:37:13.299Z,33.30
2023-03-04T09:39:46.752Z,32.60
2023-03-04T09:42:26.284Z,26.47
2023-03-04T09:44:59.358Z,30.50
2023-03-04T09:47:30.088Z,28.70
2023-03-04T09:50:33.425Z,26.77
2023-03-04T09:53:11.103Z,30.30
2023-03-04T09:55:44.998Z,29.52
2023-03-04T09:58:22.768Z,37.43
2023-03-04T10:01:15.450Z,32.03
2023-03-04T10:04:06.057Z,26.97
2023-03-04T10:06:35.895Z,24.80
2023-03-04T10:09:07.444Z,32.73
2023-03-04T10:11:48.207Z,27.27
2023-03-04T10:14:23.075Z,25.10
2023-03-04T10:17:03.333Z,32.40
2023-03-04T10:20:31.747Z,26.10
2023-03-04T10:23:03.460Z,21.02
2023-03-04T10:25:34.955Z,24.03
2023-03-04T10:34:20.547Z,26.82
2023-03-04T10:37:01.101Z,27.85
2023-03-04T10:39:32.955Z,27.82
2023-03-04T10:48:27.996Z,24.98
2023-03-04T10:51:15.915Z,22.15
2023-03-04T10:53:45.247Z,26.33
2023-03-04T10:56:33.026Z,27.37
2023-03-04T10:59:26.840Z,24.25
2023-03-04T11:04:54.593Z,25.52
2023-03-04T11:07:28.022Z,27.40
2023-03-04T11:09:58.451Z,25.97
2023-03-04T11:12:30.112Z,23.67
2023-03-04T11:14:59.045Z,28.85
2023-03-04T11:17:30.909Z,28.73
2023-03-04T11:20:11.755Z,25.40
2023-03-04T11:22:40.997Z,25.32
2023-03-04T11:25:17.854Z,23.22
2023-03-04T11:27:49.544Z,25.80
2023-03-04T11:30:30.087Z,27.17
2023-03-04T11:33:01.687Z,32.13
2023-03-04T11:35:42.353Z,26.70
2023-03-04T11:38:19.852Z,25.43
2023-03-04T11:43:47.828Z,26.05
2023-03-04T11:46:41.179Z,28.70
2023-03-04T11:49:28.372Z,28.32
2023-03-04T11:55:48.679Z,27.55
2023-03-04T11:58:32.100Z,26.10
2023-03-04T12:01:18.697Z,26.70
2023-03-04T12:04:07.056Z,30.20
2023-03-04T12:07:04.816Z,31.82
2023-03-04T12:09:48.313Z,27.67
2023-03-04T12:12:28.261Z,28.95
2023-03-04T12:15:11.701Z,28.62
2023-03-04T12:18:27.804Z,29.50
2023-03-04T12:21:20.574Z,26.82
2023-03-04T12:24:14.851Z,32.40
2023-03-04T12:26:57.738Z,29.70
2023-03-04T12:29:44.862Z,29.55
2023-03-04T12:32:46.489Z,31.47
2023-03-04T12:35:27.451Z,34.13
2023-03-04T12:38:14.248Z,31.33
2023-03-04T12:47:14.399Z,30.30
2023-03-04T12:50:04.600Z,27.00
2023-03-04T12:52:43.419Z,29.70
2023-03-04T12:55:17.950Z,33.37
2023-03-04T13:04:27.273Z,26.20
2023-03-04T13:10:13.671Z,29.18
2023-03-04T13:13:14.567Z,37.40
2023-03-04T13:15:41.198Z,34.90
2023-03-04T13:18:44.728Z,36.35
2023-03-04T13:21:29.267Z,30.25
2023-03-04T13:24:07.916Z,32.95
2023-03-04T13:26:45.978Z,33.53
2023-03-04T13:29:23.822Z,33.30
2023-03-04T13:32:04.506Z,34.20
2023-03-04T13:34:54.267Z,36.40
2023-03-04T13:37:34.575Z,35.58
2023-03-04T13:40:27.411Z,39.75
2023-03-04T13:42:56.328Z,32.47
2023-03-04T13:45:40.330Z,36.25
2023-03-04T13:48:44.126Z,33.63
2023-03-04T13:51:33.258Z,34.33
2023-03-04T13:54:08.556Z,34.53
2023-03-04T13:56:47.281Z,36.40
2023-03-04T13:59:30.689Z,36.67
2023-03-04T14:02:22.196Z,37.23
2023-03-04T14:05:02.157Z,40.00
2023-03-04T14:07:52.876Z,37.38
2023-03-04T14:10:26.212Z,42.03
2023-03-04T14:13:17.921Z,37.28
2023-03-04T14:16:03.575Z,59.38
2023-03-04T14:18:32.341Z,37.10
2023-03-04T14:21:02.290Z,35.08
2023-03-04T14:23:36.564Z,39.45
2023-03-04T14:26:07.515Z,34.50
2023-03-04T14:28:44.910Z,42.53
2023-03-04T14:31:16.618Z,34.98
2023-03-04T14:33:51.227Z,37.38
2023-03-04T14:36:23.557Z,34.35
2023-03-04T14:38:55.509Z,38.53
2023-03-04T14:41:32.701Z,43.73
2023-03-04T14:44:19.619Z,33.53
2023-03-04T14:50:29.161Z,36.25
2023-03-04T14:52:47.883Z,32.48
2023-03-04T14:55:19.918Z,37.87
2023-03-04T14:57:53.608Z,34.00
2023-03-04T15:00:32.418Z,39.60
2023-03-04T15:03:07.196Z,33.45
2023-03-04T15:08:49.909Z,36.65
2023-03-04T15:11:33.297Z,36.60
2023-03-04T15:14:02.806Z,32.98
2023-03-04T15:16:37.071Z,30.68
2023-03-04T15:19:40.079Z,33.53
2023-03-04T15:22:12.131Z,30.63
2023-03-04T15:24:41.270Z,32.73
2023-03-04T15:27:13.064Z,44.73
2023-03-04T15:29:45.016Z,39.58
2023-03-04T15:32:13.893Z,37.57
2023-03-04T15:34:47.016Z,39.67
2023-03-04T15:37:27.264Z,35.77
2023-03-04T15:39:58.563Z,41.47
2023-03-04T15:42:30.660Z,36.43
2023-03-04T15:45:03.730Z,33.90
2023-03-04T15:47:32.934Z,33.13
2023-03-04T15:50:01.620Z,39.63
2023-03-04T15:52:30.340Z,46.13
2023-03-04T15:54:59.605Z,38.97
2023-03-04T15:57:31.054Z,37.67
2023-03-04T15:59:59.720Z,31.67
2023-03-04T16:02:28.732Z,35.70
2023-03-04T16:04:59.480Z,30.50
2023-03-04T16:07:44.413Z,40.03
2023-03-04T16:10:18.723Z,34.77
2023-03-04T16:12:47.833Z,36.20
2023-03-04T16:15:22.288Z,30.80
2023-03-04T16:17:58.180Z,31.43
2023-03-04T16:20:44.988Z,32.57
2023-03-04T16:23:40.295Z,33.60
2023-03-04T16:26:18.057Z,35.50
2023-03-04T16:28:46.868Z,33.43
2023-03-04T16:31:16.535Z,28.83
2023-03-04T16:33:45.211Z,31.53
2023-03-04T16:36:19.499Z,36.20
2023-03-04T16:38:59.421Z,37.00
2023-03-04T16:41:31.679Z,33.60
2023-03-04T16:44:04.417Z,35.77
2023-03-04T16:46:33.411Z,39.77
2023-03-04T16:49:02.122Z,41.07
2023-03-04T16:51:32.770Z,41.10
2023-03-04T16:54:03.920Z,37.17
2023-03-04T17:00:00.760Z,36.33
2023-03-04T17:02:31.328Z,39.00
2023-03-04T17:05:04.593Z,39.87
2023-03-04T17:07:41.782Z,42.40
2023-03-04T17:10:10.695Z,41.77
2023-03-04T17:12:39.900Z,42.37
2023-03-04T17:15:13.854Z,38.77
2023-03-04T17:17:45.233Z,42.10
2023-03-04T17:20:17.448Z,40.47
2023-03-04T17:22:48.149Z,48.83
2023-03-04T17:25:18.520Z,44.03
2023-03-04T17:27:47.243Z,48.87
2023-03-04T17:30:22.663Z,48.90
2023-03-04T17:32:51.289Z,54.87
2023-03-04T17:35:23.004Z,53.23
2023-03-04T17:37:55.305Z,55.48
2023-03-04T17:40:23.984Z,56.63
2023-03-04T17:42:52.711Z,57.87
2023-03-04T17:45:24.968Z,62.43
2023-03-04T17:47:56.347Z,60.60
2023-03-04T17:50:26.890Z,56.53
2023-03-04T17:52:56.539Z,56.00
2023-03-04T17:55:25.384Z,56.93
2023-03-04T17:57:55.685Z,59.20
2023-03-04T18:00:24.500Z,61.63
2023-03-04T18:02:53.494Z,59.17
2023-03-04T18:05:22.330Z,59.53
2023-03-04T18:07:51.052Z,58.67
2023-03-04T18:10:20.126Z,64.37
2023-03-04T18:12:51.619Z,55.87
2023-03-04T18:15:20.283Z,58.17
2023-03-04T18:17:49.257Z,59.90
2023-03-04T18:20:18.919Z,55.63
2023-03-04T18:22:47.861Z,66.87
2023-03-04T18:25:20.110Z,73.17
2023-03-04T18:27:48.770Z,80.67
2023-03-04T18:30:20.159Z,72.30
2023-03-04T18:32:52.310Z,76.67
2023-03-04T18:35:20.170Z,58.60
2023-03-04T18:37:49.929Z,81.13
2023-03-04T18:40:21.395Z,65.97
2023-03-04T18:42:53.093Z,66.33
2023-03-04T18:45:22.604Z,70.20
2023-03-04T18:47:53.125Z,55.27
2023-03-04T18:50:22.166Z,50.97
2023-03-04T18:52:55.420Z,51.27
2023-03-04T18:55:24.625Z,57.17
2023-03-04T18:57:56.060Z,53.17
2023-03-04T19:00:28.905Z,48.30
2023-03-04T19:03:09.882Z,44.83
2023-03-04T19:05:42.087Z,49.20
2023-03-04T19:08:10.691Z,58.40
2023-03-04T19:10:47.101Z,59.37
2023-03-04T19:17:49.023Z,66.90
2023-03-04T19:24:08.195Z,55.53
2023-03-04T19:26:38.432Z,64.27
2023-03-04T19:29:07.623Z,49.60
2023-03-04T19:31:51.813Z,64.70
2023-03-04T19:34:20.444Z,52.17
2023-03-04T19:36:49.152Z,52.70
2023-03-04T19:39:22.190Z,56.63
2023-03-04T19:41:52.377Z,54.83
2023-03-04T19:44:27.925Z,59.60
2023-03-04T19:53:42.542Z,58.17
2023-03-04T19:56:16.071Z,54.57
2023-03-04T19:58:46.441Z,56.77
2023-03-04T20:01:30.581Z,55.93
2023-03-04T20:07:46.158Z,34.83
2023-03-04T20:10:20.292Z,42.07
2023-03-04T20:12:59.337Z,45.87
2023-03-04T20:15:36.248Z,49.97
2023-03-04T20:24:52.097Z,42.43
2023-03-04T20:27:20.142Z,38.80
2023-03-04T20:29:50.694Z,32.17
2023-03-04T20:32:56.952Z,30.70
2023-03-04T20:35:33.063Z,32.10
2023-03-04T20:38:02.404Z,34.53
2023-03-04T20:40:37.574Z,33.27
2023-03-04T20:43:07.175Z,29.23
2023-03-04T20:57:53.603Z,35.47
2023-03-04T21:00:41.423Z,44.27
2023-03-04T21:03:26.598Z,46.10
2023-03-04T21:05:57.158Z,37.53
2023-03-04T21:08:33.708Z,44.33
2023-03-04T21:11:19.382Z,34.60
2023-03-04T21:13:52.746Z,43.63
2023-03-04T21:16:22.660Z,41.27
2023-03-04T21:22:32.106Z,36.27
2023-03-04T21:25:01.045Z,35.87
2023-03-04T21:27:29.907Z,47.27
2023-03-04T21:30:00.286Z,42.60
2023-03-04T21:35:33.124Z,38.23
2023-03-04T21:38:12.593Z,33.23
2023-03-04T21:40:45.986Z,35.30
2023-03-04T21:43:18.006Z,35.67
2023-03-04T21:45:48.480Z,36.67
2023-03-04T21:48:17.031Z,37.40
2023-03-04T21:50:45.929Z,34.93
2023-03-04T21:53:16.297Z,38.47
2023-03-04T21:55:46.384Z,34.47
2023-03-04T21:58:16.970Z,38.57
2023-03-04T22:00:49.020Z,33.40
2023-03-04T22:03:17.811Z,39.70
2023-03-04T22:05:47.952Z,34.80
2023-03-04T22:08:21.777Z,40.57
2023-03-04T22:10:50.509Z,38.67
2023-03-04T22:13:19.444Z,36.03
2023-03-04T22:15:51.907Z,33.53
2023-03-04T22:21:10.104Z,40.80
2023-03-04T22:23:40.786Z,34.03
2023-03-04T22:26:12.315Z,37.27
2023-03-04T22:28:41.652Z,40.40
2023-03-04T22:31:18.208Z,36.10
2023-03-04T22:33:47.725Z,34.07
2023-03-04T22:36:16.606Z,37.23
2023-03-04T22:38:45.519Z,34.87
2023-03-04T22:41:17.247Z,38.40
2023-03-04T22:43:47.048Z,37.73
2023-03-04T22:46:20.154Z,34.07
2023-03-04T22:48:49.771Z,37.87
2023-03-04T22:51:20.862Z,38.13
2023-03-04T22:53:51.721Z,36.13
2023-03-04T22:56:21.102Z,36.87
2023-03-04T22:58:50.771Z,38.27
2023-03-04T23:01:21.039Z,39.27
2023-03-04T23:03:51.378Z,32.40
2023-03-04T23:06:24.716Z,35.87
2023-03-04T23:08:54.107Z,40.00
2023-03-04T23:11:26.603Z,36.10
2023-03-04T23:13:56.842Z,33.00
2023-03-04T23:16:28.450Z,35.97
2023-03-04T23:18:59.705Z,35.13
2023-03-04T23:21:31.259Z,32.40
2023-03-04T23:24:01.949Z,35.73
2023-03-04T23:26:34.283Z,38.40
2023-03-04T23:29:06.034Z,37.33
2023-03-04T23:31:35.892Z,37.40
2023-03-04T23:34:07.282Z,40.53
2023-03-04T23:36:38.142Z,33.90
2023-03-04T23:39:08.360Z,34.70
2023-03-04T23:41:40.355Z,36.47
2023-03-04T23:44:09.774Z,32.60
2023-03-04T23:46:39.354Z,42.10
2023-03-04T23:49:09.422Z,34.77
2023-03-04T23:51:42.168Z,41.30
2023-03-04T23:54:11.843Z,35.47
2023-03-04T23:56:40.565Z,36.57
2023-03-04T23:59:09.714Z,35.20
